Time;durP1;ratioP1;P1;durP2;ratioP2;P2;SDS_P1;SDS_P2;PMS_P1;PMS_P2;Temp;Humidity;BMP_temperature;BMP_pressure;BME280_temperature;BME280_humidity;BME280_pressure;Samples;Min_cycle;Max_cycle;Signal;HPM_P1;HPM_P2
2023/10/01 00:00:34;;;;;;;41.20;24.10;;;;;;;23.40;39.99;100147.80;108144;1253;61666;-66
2023/10/01 00:03:05;;;;;;;42.50;25.10;;;;;;;23.23;40.18;100150.39;108130;1252;59595;-66
2023/10/01 00:05:32;;;;;;;41.40;24.60;;;;;;;23.31;40.16;100146.31;108138;1252;72940;-66
2023/10/01 00:08:01;;;;;;;51.40;27.10;;;;;;;23.08;40.38;100148.43;108138;1253;70131;-66
2023/10/01 00:10:28;;;;;;;52.00;27.20;;;;;;;22.96;40.75;100148.27;108262;1253;71404;-66
2023/10/01 00:12:57;;;;;;;42.00;24.70;;;;;;;22.66;41.42;100151.07;108133;1253;61741;-65
2023/10/01 00:15:26;;;;;;;48.80;25.60;;;;;;;22.84;41.30;100153.27;108195;1253;60004;-65
2023/10/01 00:17:54;;;;;;;42.90;24.40;;;;;;;22.94;41.12;100154.76;108111;1253;72818;-65
2023/10/01 00:20:27;;;;;;;41.50;22.80;;;;;;;22.99;41.11;100154.05;108105;1252;70491;-66
2023/10/01 00:23:02;;;;;;;39.60;24.00;;;;;;;23.06;41.03;100156.22;108148;1253;71529;-66
2023/10/01 00:25:32;;;;;;;40.80;23.80;;;;;;;23.02;40.94;100162.66;108132;1252;60753;-65
2023/10/01 00:28:01;;;;;;;46.10;25.10;;;;;;;23.02;41.21;100156.86;108071;1253;59028;-65
2023/10/01 00:30:31;;;;;;;40.90;23.90;;;;;;;22.99;41.27;100153.55;108047;1253;71472;-66
2023/10/01 00:33:06;;;;;;;39.80;24.70;;;;;;;23.01;41.39;100150.67;108091;1253;69963;-67
2023/10/01 00:35:37;;;;;;;44.10;24.60;;;;;;;23.01;41.37;100152.37;108094;1253;73146;-66
2023/10/01 00:38:06;;;;;;;44.00;25.00;;;;;;;22.86;41.12;100153.26;108083;1253;61868;-65
2023/10/01 00:40:34;;;;;;;38.30;22.90;;;;;;;22.90;41.00;100144.48;108069;1257;60269;-65
2023/10/01 00:43:03;;;;;;;38.70;22.60;;;;;;;22.93;40.39;100142.65;108037;1253;71377;-66
2023/10/01 00:45:32;;;;;;;35.20;21.20;;;;;;;23.11;39.36;100140.13;108090;1258;69244;-67
2023/10/01 00:48:14;;;;;;;39.70;23.60;;;;;;;22.95;39.45;100141.79;108041;1258;73143;-65
2023/10/01 00:50:42;;;;;;;42.00;23.20;;;;;;;23.22;39.33;100140.98;107905;1254;60568;-66
2023/10/01 00:53:10;;;;;;;34.20;19.90;;;;;;;23.27;38.74;100138.59;108065;1253;59747;-66
2023/10/01 00:55:39;;;;;;;43.50;21.20;;;;;;;23.29;38.79;100135.30;108010;1253;72875;-65
2023/10/01 00:58:10;;;;;;;43.60;21.90;;;;;;;23.23;38.68;100134.78;108124;1253;69164;-64
2023/10/01 01:00:37;;;;;;;33.60;20.20;;;;;;;23.27;38.01;100135.17;108053;1253;71411;-66
2023/10/01 01:05:56;;;;;;;30.60;19.10;;;;;;;23.34;37.70;100133.45;107966;1253;59657;-67
2023/10/01 01:08:22;;;;;;;41.60;19.70;;;;;;;23.48;37.59;100130.90;108096;1253;73046;-64
2023/10/01 01:10:51;;;;;;;35.30;19.20;;;;;;;23.73;37.37;100132.25;108125;1253;68499;-65
2023/10/01 01:13:20;;;;;;;32.50;19.50;;;;;;;23.84;36.82;100131.58;108159;1255;71471;-65
2023/10/01 01:15:49;;;;;;;39.80;20.00;;;;;;;23.45;37.59;100130.64;108094;1253;60729;-66
2023/10/01 01:18:26;;;;;;;35.70;20.10;;;;;;;23.50;37.49;100133.19;108149;1254;59564;-66
2023/10/01 01:20:58;;;;;;;33.80;20.10;;;;;;;23.60;37.34;100132.44;108113;1256;72128;-66
2023/10/01 01:23:30;;;;;;;34.50;20.30;;;;;;;23.72;37.69;100127.31;108129;1252;70379;-66
2023/10/01 01:26:00;;;;;;;35.70;21.00;;;;;;;23.98;37.28;100132.64;108097;1253;72748;-68
2023/10/01 01:28:32;;;;;;;37.20;21.40;;;;;;;23.98;37.33;100129.57;108261;1251;60405;-68
2023/10/01 01:31:00;;;;;;;37.00;19.90;;;;;;;23.64;37.91;100121.41;108187;1251;59155;-66
2023/10/01 01:34:14;;;;;;;35.00;21.00;;;;;;;23.42;37.80;100124.30;108227;1251;73092;-65
2023/10/01 01:36:17;;;;;;;34.30;20.80;;;;;;;23.72;37.60;100126.55;108000;1251;69982;-67
2023/10/01 01:39:12;;;;;;;41.40;21.80;;;;;;;23.56;38.33;100128.36;108187;1251;72696;-66
2023/10/01 01:41:47;;;;;;;38.60;22.80;;;;;;;23.66;38.20;100129.04;108159;1253;60333;-69
2023/10/01 01:44:16;;;;;;;40.00;22.10;;;;;;;23.49;38.43;100123.52;108249;1251;58959;-66
2023/10/01 01:46:59;;;;;;;39.30;22.90;;;;;;;23.20;38.96;100113.77;108183;1251;72121;-66
2023/10/01 01:49:28;;;;;;;33.80;20.40;;;;;;;23.17;38.96;100113.31;108102;1251;69970;-66
2023/10/01 01:52:03;;;;;;;38.60;23.50;;;;;;;23.18;39.07;100106.77;108137;1251;73229;-65
2023/10/01 01:54:34;;;;;;;38.10;21.80;;;;;;;23.16;39.11;100107.96;108081;1251;61695;-65
2023/10/01 01:57:08;;;;;;;40.60;21.90;;;;;;;22.70;40.11;100112.58;108216;1251;60174;-65
2023/10/01 01:59:38;;;;;;;37.60;22.10;;;;;;;22.54;40.86;100114.77;108205;1256;71801;-66
2023/10/01 02:02:07;;;;;;;41.00;22.60;;;;;;;22.20;41.14;100114.64;108097;1251;68065;-65
2023/10/01 02:04:35;;;;;;;40.40;22.70;;;;;;;22.27;41.10;100114.73;108185;1251;72280;-65
2023/10/01 02:07:03;;;;;;;38.00;24.30;;;;;;;22.44;40.96;100099.39;108188;1253;60378;-67
2023/10/01 02:09:31;;;;;;;39.00;22.70;;;;;;;22.43;41.00;100100.98;108127;1254;59494;-65
2023/10/01 02:11:58;;;;;;;39.60;23.20;;;;;;;22.43;41.07;100103.34;108163;1253;73095;-66
2023/10/01 02:14:35;;;;;;;37.40;23.10;;;;;;;22.43;40.88;100103.16;108115;1251;68888;-65
2023/10/01 02:17:13;;;;;;;35.60;20.70;;;;;;;22.47;41.18;100110.18;108244;1251;71784;-66
2023/10/01 02:19:49;;;;;;;34.80;22.00;;;;;;;22.31;41.51;100113.19;108151;1251;59765;-65
2023/10/01 02:22:17;;;;;;;39.80;23.50;;;;;;;22.09;41.68;100110.02;108220;1253;59819;-65
2023/10/01 02:24:54;;;;;;;36.30;22.30;;;;;;;21.92;41.83;100106.06;108252;1251;72093;-65
2023/10/01 02:27:29;;;;;;;44.00;23.20;;;;;;;21.70;42.14;100108.86;108179;1252;69977;-66
2023/10/01 02:30:14;;;;;;;34.80;21.50;;;;;;;21.95;41.61;100105.48;108212;1253;71269;-65
2023/10/01 02:35:34;;;;;;;44.60;22.90;;;;;;;21.91;42.01;100105.74;108200;1251;59678;-66
2023/10/01 02:38:05;;;;;;;37.20;21.40;;;;;;;21.81;41.91;100100.91;108247;1251;73006;-65
2023/10/01 02:40:37;;;;;;;38.70;22.00;;;;;;;21.63;42.32;100096.70;108197;1251;69945;-66
2023/10/01 02:43:09;;;;;;;41.60;25.60;;;;;;;21.32;43.25;100104.64;108136;1256;71676;-66
2023/10/01 02:45:41;;;;;;;40.80;22.20;;;;;;;21.43;42.87;100100.84;108160;1251;61898;-65
2023/10/01 02:48:18;;;;;;;34.40;22.80;;;;;;;21.24;43.28;100099.27;108169;1251;59520;-67
2023/10/01 02:50:52;;;;;;;38.30;22.30;;;;;;;21.20;43.29;100103.14;108064;1251;73089;-65
2023/10/01 02:53:21;;;;;;;42.10;22.10;;;;;;;21.16;43.26;100102.73;108065;1251;69643;-66
2023/10/01 02:55:51;;;;;;;42.40;23.20;;;;;;;21.10;43.19;100101.63;108162;1253;71442;-66
2023/10/01 02:58:32;;;;;;;39.90;22.80;;;;;;;20.92;43.65;100100.89;108178;1251;61654;-66
2023/10/01 03:01:04;;;;;;;34.90;21.80;;;;;;;20.82;44.11;100108.36;108190;1251;60338;-65
2023/10/01 03:03:32;;;;;;;39.00;23.70;;;;;;;20.47;44.51;100105.52;108239;1251;72897;-64
2023/10/01 03:06:08;;;;;;;37.10;22.00;;;;;;;20.45;44.55;100105.38;108179;1251;68974;-66
2023/10/01 03:08:59;;;;;;;35.80;21.30;;;;;;;20.50;44.53;100101.18;108162;1251;71396;-65
2023/10/01 03:11:34;;;;;;;40.30;22.00;;;;;;;20.70;44.32;100103.38;108153;1253;61170;-65
2023/10/01 03:14:09;;;;;;;35.20;22.90;;;;;;;20.52;44.36;100100.15;108195;1251;60182;-65
2023/10/01 03:16:42;;;;;;;34.00;20.40;;;;;;;20.46;44.13;100095.30;108224;1253;73890;-65
2023/10/01 03:19:19;;;;;;;37.60;22.60;;;;;;;20.36;44.60;100098.55;108152;1252;69970;-65
2023/10/01 03:22:15;;;;;;;39.20;23.30;;;;;;;20.34;44.50;100099.40;108154;1254;72633;-65
2023/10/01 03:24:46;;;;;;;35.60;22.30;;;;;;;20.31;44.12;100095.70;108247;1256;61814;-66
2023/10/01 03:27:25;;;;;;;;;;;;;;;20.26;44.28;100093.96;108218;1253;60037;-65
2023/10/01 03:30:05;;;;;;;35.00;20.50;;;;;;;20.07;44.67;100088.83;108250;1253;73871;-65
2023/10/01 03:32:33;;;;;;;35.10;21.90;;;;;;;20.09;44.89;100091.39;108106;1257;70165;-66
2023/10/01 03:35:07;;;;;;;39.30;22.90;;;;;;;20.23;44.55;100082.95;108187;1253;71996;-66
2023/10/01 03:37:38;;;;;;;36.40;21.20;;;;;;;20.16;44.53;100084.27;108171;1253;61798;-66
2023/10/01 03:40:18;;;;;;;40.40;21.90;;;;;;;20.02;44.96;100091.02;108179;1253;60319;-64
2023/10/01 03:42:53;;;;;;;38.50;22.80;;;;;;;19.97;44.99;100098.36;108190;1253;72755;-67
2023/10/01 03:48:00;;;;;;;42.60;23.40;;;;;;;19.93;44.76;100097.58;108187;1253;72797;-66
2023/10/01 03:50:31;;;;;;;46.10;23.40;;;;;;;19.79;45.09;100105.08;108180;1253;61708;-65
2023/10/01 03:52:59;;;;;;;42.90;23.00;;;;;;;19.67;45.57;100108.61;108196;1253;60104;-65
2023/10/01 03:55:30;;;;;;;44.40;23.80;;;;;;;19.59;45.53;100107.95;108196;1253;73308;-66
2023/10/01 04:00:41;;;;;;;43.60;23.90;;;;;;;19.39;45.98;100112.48;108113;1253;73318;-66
2023/10/01 04:03:13;;;;;;;38.70;23.80;;;;;;;19.13;46.63;100111.54;108104;1253;61672;-66
2023/10/01 04:05:46;;;;;;;38.00;23.10;;;;;;;19.15;46.89;100109.77;108123;1253;60267;-66
2023/10/01 04:08:14;;;;;;;42.40;23.30;;;;;;;19.21;46.72;100108.81;108149;1253;73854;-65
2023/10/01 04:10:43;;;;;;;52.40;24.70;;;;;;;19.31;46.64;100113.23;108192;1253;70626;-65
2023/10/01 04:13:20;;;;;;;46.00;24.90;;;;;;;19.26;46.72;100115.96;108002;1253;72277;-66
2023/10/01 04:16:07;;;;;;;41.80;23.90;;;;;;;19.29;46.70;100121.41;108126;1253;60460;-66
2023/10/01 04:18:37;;;;;;;42.20;24.00;;;;;;;19.38;46.59;100122.20;108209;1253;60405;-66
2023/10/01 04:23:33;;;;;;;51.20;24.90;;;;;;;19.72;46.10;100128.95;108181;1253;71246;-66
2023/10/01 04:26:05;;;;;;;43.50;23.60;;;;;;;19.69;46.36;100132.39;108196;1253;73019;-67
2023/10/01 04:28:36;;;;;;;42.30;23.50;;;;;;;19.78;46.39;100136.52;108200;1254;61672;-66
2023/10/01 04:31:09;;;;;;;;;;;;;;;19.90;46.12;100137.92;108177;1258;60356;-67
2023/10/01 04:33:42;;;;;;;46.70;25.20;;;;;;;19.90;46.28;100144.84;108184;1253;73148;-66
2023/10/01 04:36:11;;;;;;;40.90;24.20;;;;;;;19.79;46.61;100147.87;108147;1252;70495;-66
2023/10/01 04:38:41;;;;;;;53.80;25.20;;;;;;;20.00;46.49;100151.77;108263;1253;71712;-67
2023/10/01 04:41:22;;;;;;;45.00;24.10;;;;;;;20.36;46.03;100150.41;108175;1253;60447;-66
2023/10/01 04:43:55;;;;;;;41.40;24.80;;;;;;;20.61;45.70;100149.59;108207;1253;59948;-67
2023/10/01 04:46:25;;;;;;;44.10;24.40;;;;;;;20.39;46.16;100151.11;108211;1253;72880;-66
2023/10/01 04:48:53;;;;;;;43.90;24.00;;;;;;;20.72;45.81;100148.50;108141;1253;69964;-67
2023/10/01 04:51:24;;;;;;;43.40;23.90;;;;;;;20.99;45.54;100151.95;108138;1253;70753;-66
2023/10/01 04:53:59;;;;;;;41.00;24.70;;;;;;;21.11;45.73;100151.30;108134;1253;60375;-67
2023/10/01 04:56:27;;;;;;;40.70;23.30;;;;;;;20.98;46.56;100154.17;108174;1252;60388;-67
2023/10/01 04:58:54;;;;;;;43.70;24.00;;;;;;;21.91;45.46;100151.02;108157;1253;73918;-67
2023/10/01 05:01:24;;;;;;;41.30;22.80;;;;;;;22.55;44.43;100149.38;108081;1253;70088;-67
2023/10/01 05:03:52;;;;;;;37.20;23.00;;;;;;;23.07;43.84;100146.39;108024;1253;72714;-67
2023/10/01 05:06:20;;;;;;;41.90;23.20;;;;;;;23.86;42.66;100143.20;107953;1253;61685;-67
2023/10/01 05:08:51;;;;;;;40.00;20.80;;;;;;;24.61;41.20;100145.95;108211;1255;60342;-67
2023/10/01 05:11:22;;;;;;;39.00;22.20;;;;;;;25.33;40.06;100140.40;108133;1253;73825;-67
2023/10/01 05:13:51;;;;;;;36.80;20.60;;;;;;;25.74;39.53;100142.75;108099;1253;70259;-66
2023/10/01 05:16:26;;;;;;;36.40;20.40;;;;;;;26.27;38.61;100143.34;108221;1253;71910;-65
2023/10/01 05:19:09;;;;;;;29.50;19.50;;;;;;;26.72;37.98;100146.30;108152;1253;61728;-66
2023/10/01 05:21:46;;;;;;;29.90;17.60;;;;;;;27.31;37.01;100145.21;108150;1251;60316;-67
2023/10/01 05:24:36;;;;;;;29.00;16.60;;;;;;;27.83;36.18;100147.27;108107;1253;73807;-68
2023/10/01 05:27:09;;;;;;;26.90;16.90;;;;;;;28.29;35.83;100152.81;108153;1257;70119;-67
2023/10/01 05:29:42;;;;;;;28.00;17.00;;;;;;;28.69;34.99;100156.52;108167;1253;72682;-67
2023/10/01 05:32:11;;;;;;;22.20;15.10;;;;;;;29.02;34.63;100154.67;108157;1253;60399;-65
2023/10/01 05:34:42;;;;;;;26.70;16.90;;;;;;;29.23;33.93;100153.74;108197;1253;60205;-66
2023/10/01 05:37:12;;;;;;;27.60;15.70;;;;;;;29.40;33.87;100163.18;108165;1253;73792;-67
2023/10/01 05:39:57;;;;;;;25.00;15.40;;;;;;;29.47;33.90;100170.00;108171;1253;70462;-66
2023/10/01 05:42:40;;;;;;;28.50;15.30;;;;;;;29.71;33.74;100175.84;108148;1253;72585;-66
2023/10/01 05:45:18;;;;;;;20.00;14.10;;;;;;;29.80;33.56;100176.31;108147;1253;60346;-67
2023/10/01 05:47:54;;;;;;;25.20;14.40;;;;;;;29.85;33.70;100184.56;108148;1257;60303;-67
2023/10/01 05:50:28;;;;;;;17.70;13.30;;;;;;;30.17;33.19;100184.98;108128;1253;72975;-65
2023/10/01 05:52:57;;;;;;;22.40;14.20;;;;;;;30.44;33.13;100184.14;108193;1253;70198;-67
2023/10/01 05:55:25;;;;;;;24.10;14.20;;;;;;;30.50;33.13;100184.41;108232;1251;72665;-67
2023/10/01 05:57:52;;;;;;;16.60;12.70;;;;;;;30.55;33.19;100189.50;108153;1253;59269;-67
2023/10/01 06:00:26;;;;;;;19.50;12.80;;;;;;;30.63;33.17;100192.16;108194;1253;60798;-67
2023/10/01 06:03:00;;;;;;;23.20;12.50;;;;;;;30.78;33.04;100193.20;108169;1253;73813;-67
2023/10/01 06:05:33;;;;;;;17.50;12.80;;;;;;;30.54;33.44;100193.37;108128;1253;70961;-67
2023/10/01 06:08:12;;;;;;;20.50;12.50;;;;;;;30.40;33.33;100197.27;108055;1252;71889;-68
2023/10/01 06:10:59;;;;;;;20.50;12.70;;;;;;;30.10;34.10;100203.34;108158;1253;60943;-67
2023/10/01 06:13:30;;;;;;;16.40;11.70;;;;;;;29.86;34.53;100208.34;108111;1253;60433;-67
2023/10/01 06:16:03;;;;;;;19.10;11.70;;;;;;;29.60;34.85;100208.52;108166;1253;72267;-67
2023/10/01 06:18:31;;;;;;;19.30;12.60;;;;;;;29.39;34.97;100211.52;108213;1252;70718;-67
2023/10/01 06:21:01;;;;;;;16.60;12.40;;;;;;;29.02;36.02;100215.27;108150;1253;72664;-67
2023/10/01 06:23:28;;;;;;;18.10;13.10;;;;;;;28.80;36.52;100215.41;108145;1258;60310;-67
2023/10/01 06:25:58;;;;;;;19.00;13.10;;;;;;;28.50;37.47;100213.64;108087;1253;60404;-67
2023/10/01 06:28:27;;;;;;;22.20;14.10;;;;;;;28.39;37.83;100217.05;108142;1252;73880;-67
2023/10/01 06:30:54;;;;;;;22.60;13.30;;;;;;;28.24;38.03;100220.30;108136;1252;70322;-67
2023/10/01 06:33:25;;;;;;;16.50;13.00;;;;;;;28.18;38.42;100220.23;108139;1253;72309;-67
2023/10/01 06:38:44;;;;;;;19.50;13.60;;;;;;;28.04;39.22;100223.77;108168;1253;60304;-67
2023/10/01 06:41:19;;;;;;;18.90;13.20;;;;;;;27.86;39.73;100229.16;108184;1254;73994;-67
2023/10/01 06:43:49;;;;;;;20.20;13.50;;;;;;;27.89;39.65;100232.48;108176;1253;71546;-67
2023/10/01 06:46:19;;;;;;;23.80;13.70;;;;;;;27.68;40.11;100231.77;108200;1253;72833;-67
2023/10/01 06:48:51;;;;;;;22.00;14.40;;;;;;;27.48;40.61;100232.15;108217;1256;62337;-67
2023/10/01 06:51:22;;;;;;;19.80;14.40;;;;;;;27.26;40.96;100237.66;108270;1251;60512;-67
2023/10/01 06:54:05;;;;;;;19.90;13.40;;;;;;;27.21;41.41;100242.81;108271;1253;72652;-71
2023/10/01 06:56:33;;;;;;;21.30;15.00;;;;;;;26.97;42.48;100244.73;108288;1251;69383;-66
2023/10/01 07:01:35;;;;;;;23.20;14.80;;;;;;;26.72;42.72;100249.11;108239;1253;61398;-66
2023/10/01 07:04:05;;;;;;;22.00;15.20;;;;;;;26.63;42.89;100255.29;108248;1253;60764;-66
2023/10/01 07:06:36;;;;;;;19.60;14.30;;;;;;;26.60;43.23;100257.11;108270;1251;73865;-67
2023/10/01 07:09:23;;;;;;;20.60;15.00;;;;;;;26.75;43.44;100254.95;108170;1253;70324;-66
2023/10/01 07:11:51;;;;;;;22.00;15.40;;;;;;;26.53;43.47;100260.36;108234;1252;72556;-66
2023/10/01 07:14:29;;;;;;;21.30;16.40;;;;;;;26.52;43.69;100265.58;108235;1252;60502;-66
2023/10/01 07:16:58;;;;;;;27.20;18.40;;;;;;;26.19;44.80;100273.48;108173;1252;60469;-66
2023/10/01 07:19:27;;;;;;;25.90;17.40;;;;;;;25.84;45.16;100274.45;108221;1254;73909;-66
2023/10/01 07:21:57;;;;;;;29.50;19.50;;;;;;;25.76;45.76;100275.47;108188;1251;70253;-66
2023/10/01 07:24:28;;;;;;;27.30;18.80;;;;;;;25.60;46.45;100280.10;108071;1253;72029;-66
2023/10/01 07:27:06;;;;;;;28.60;19.80;;;;;;;25.61;46.19;100281.05;108155;1253;61677;-66
2023/10/01 07:29:34;;;;;;;29.10;19.50;;;;;;;25.55;46.77;100286.34;108158;1253;60349;-66
2023/10/01 07:32:02;;;;;;;29.90;20.20;;;;;;;25.59;46.12;100288.96;107996;1258;73847;-67
2023/10/01 07:34:31;;;;;;;28.30;19.00;;;;;;;25.55;46.81;100292.59;108120;1254;69944;-66
2023/10/01 07:36:59;;;;;;;25.60;17.90;;;;;;;25.59;46.80;100293.81;108167;1253;71833;-66
2023/10/01 07:39:36;;;;;;;28.70;18.90;;;;;;;25.36;47.04;100298.02;107898;1253;60522;-67
2023/10/01 07:42:04;;;;;;;29.50;17.50;;;;;;;25.03;47.82;100295.25;108105;1253;60022;-66
2023/10/01 07:44:33;;;;;;;26.60;17.00;;;;;;;25.34;47.17;100296.48;108141;1253;73771;-68
2023/10/01 07:47:03;;;;;;;24.20;15.90;;;;;;;25.44;46.76;100299.39;108139;1253;70276;-68
2023/10/01 07:49:46;;;;;;;24.50;16.60;;;;;;;25.30;47.20;100297.33;108022;1255;73236;-67
2023/10/01 07:52:17;;;;;;;21.90;15.10;;;;;;;25.34;47.01;100297.70;108102;1253;61695;-67
2023/10/01 07:54:47;;;;;;;20.50;13.80;;;;;;;25.04;47.51;100297.80;108179;1252;60448;-67
2023/10/01 07:57:27;;;;;;;20.10;13.70;;;;;;;25.04;47.68;100296.25;108132;1253;73888;-67
2023/10/01 07:59:55;;;;;;;17.50;12.40;;;;;;;24.92;47.61;100295.70;108176;1253;69553;-66
2023/10/01 08:02:25;;;;;;;19.40;13.00;;;;;;;24.94;47.50;100303.47;108255;1253;73465;-66
2023/10/01 08:04:59;;;;;;;17.30;12.00;;;;;;;24.99;47.39;100301.04;108148;1253;64132;-69
2023/10/01 08:07:31;;;;;;;18.40;11.40;;;;;;;24.95;47.14;100302.09;108229;1253;60182;-67
2023/10/01 08:09:59;;;;;;;18.30;10.40;;;;;;;24.84;47.28;100302.98;108213;1254;72444;-66
2023/10/01 08:17:54;;;;;;;14.70;9.90;;;;;;;24.67;47.06;100311.89;108124;1253;60561;-66
2023/10/01 08:20:30;;;;;;;17.40;9.00;;;;;;;24.61;47.04;100313.59;108151;1252;60122;-67
2023/10/01 08:23:12;;;;;;;18.70;8.80;;;;;;;24.37;47.44;100314.08;108166;1253;73854;-66
2023/10/01 08:25:42;;;;;;;16.60;8.50;;;;;;;24.45;47.22;100318.77;109382;1253;69395;-67
2023/10/01 08:30:43;;;;;;;14.90;7.80;;;;;;;24.41;47.13;100321.95;109325;1253;60428;-67
2023/10/01 08:33:21;;;;;;;13.40;7.60;;;;;;;24.09;47.58;100325.07;109467;1251;60192;-67
2023/10/01 08:36:01;;;;;;;14.70;7.20;;;;;;;24.10;47.49;100332.20;109403;1253;73089;-67
2023/10/01 08:38:37;;;;;;;15.20;7.20;;;;;;;24.48;46.50;100329.98;109420;1253;69964;-67
2023/10/01 08:41:05;;;;;;;14.00;6.50;;;;;;;24.54;46.42;100332.36;109338;1253;71625;-67
2023/10/01 08:43:36;;;;;;;11.00;6.60;;;;;;;24.48;46.29;100330.00;109174;1252;60755;-67
2023/10/01 08:46:17;;;;;;;;;;;;;;;24.44;46.45;100329.91;109378;1252;60075;-68
2023/10/01 08:48:44;;;;;;;12.20;7.10;;;;;;;24.47;46.30;100330.55;109361;1252;73054;-67
2023/10/01 08:51:12;;;;;;;13.70;6.00;;;;;;;24.44;46.25;100333.70;109148;1253;70310;-68
2023/10/01 08:53:41;;;;;;;13.80;6.10;;;;;;;24.30;46.38;100336.67;109354;1253;74032;-67
2023/10/01 08:56:13;;;;;;;10.70;5.30;;;;;;;24.21;46.44;100338.58;109345;1253;61703;-67
2023/10/01 08:58:50;;;;;;;11.50;5.80;;;;;;;24.28;46.17;100339.56;109401;1253;58811;-67
2023/10/01 09:01:20;;;;;;;10.40;5.90;;;;;;;24.27;46.12;100339.48;109352;1252;74776;-67
2023/10/01 09:03:52;;;;;;;10.30;5.40;;;;;;;24.30;46.11;100341.69;109367;1252;72982;-67
2023/10/01 09:06:27;;;;;;;10.70;5.70;;;;;;;24.43;45.82;100341.34;109357;1254;73124;-67
2023/10/01 09:09:19;;;;;;;14.00;6.70;;;;;;;24.20;46.33;100346.41;109206;1252;61729;-68
2023/10/01 09:11:50;;;;;;;13.40;5.30;;;;;;;24.11;46.42;100346.14;109289;1257;58959;-67
2023/10/01 09:14:34;;;;;;;11.70;5.40;;;;;;;24.10;46.37;100347.81;109388;1254;74777;-67
2023/10/01 09:17:02;;;;;;;11.90;5.30;;;;;;;24.03;46.60;100352.52;109131;1253;70149;-68
2023/10/01 09:19:31;;;;;;;12.50;4.70;;;;;;;24.11;46.23;100354.89;109196;1253;72478;-66
2023/10/01 09:25:21;;;;;;;14.40;5.90;;;;;;;24.16;46.14;100352.80;105437;1285;600486;-66
2023/10/01 09:30:58;;;;;;;9.80;4.60;;;;;;;24.00;46.39;100361.27;107220;1266;59157;-66
2023/10/01 09:33:25;;;;;;;10.90;5.00;;;;;;;24.03;46.37;100364.05;107236;1265;71529;-67
2023/10/01 09:35:59;;;;;;;13.30;7.60;;;;;;;23.97;46.21;100361.17;107681;1259;68783;-67
2023/10/01 09:38:30;;;;;;;14.10;5.20;;;;;;;23.89;46.41;100366.55;107597;1256;206834;-68
2023/10/01 09:40:58;;;;;;;11.00;5.60;;;;;;;23.78;46.76;100365.73;108279;1251;61725;-67
2023/10/01 09:43:30;;;;;;;11.40;5.20;;;;;;;23.63;46.90;100366.44;108259;1255;60044;-67
2023/10/01 09:46:00;;;;;;;10.80;5.20;;;;;;;23.70;46.89;100369.33;108182;1251;71341;-67
2023/10/01 09:48:33;;;;;;;9.90;5.00;;;;;;;23.60;47.03;100364.19;108230;1251;70287;-67
2023/10/01 09:51:11;;;;;;;12.40;4.60;;;;;;;23.63;46.61;100366.09;108149;1251;70496;-67
2023/10/01 09:53:48;;;;;;;14.00;4.80;;;;;;;23.80;46.35;100366.79;108252;1251;61708;-67
2023/10/01 09:56:26;;;;;;;11.90;4.90;;;;;;;23.97;46.23;100364.88;108226;1252;59984;-66
2023/10/01 09:58:58;;;;;;;11.40;4.70;;;;;;;24.11;45.92;100366.54;108201;1251;72378;-66
2023/10/01 10:01:31;;;;;;;11.00;4.60;;;;;;;24.31;45.42;100364.58;108189;1251;68897;-67
2023/10/01 10:04:01;;;;;;;15.30;5.10;;;;;;;24.48;45.02;100369.15;108070;1254;72674;-67
2023/10/01 10:06:30;;;;;;;12.40;4.70;;;;;;;24.59;44.81;100370.45;108249;1253;61099;-67
2023/10/01 10:09:04;;;;;;;11.00;4.40;;;;;;;24.87;44.14;100371.77;108262;1251;60286;-66
2023/10/01 10:11:40;;;;;;;9.00;4.20;;;;;;;25.00;43.92;100371.29;108297;1251;71622;-66
2023/10/01 10:14:24;;;;;;;11.50;5.00;;;;;;;25.24;43.56;100372.52;108247;1251;68314;-66
2023/10/01 10:16:58;;;;;;;10.00;4.50;;;;;;;25.33;43.27;100369.44;108267;1251;72177;-68
2023/10/01 10:19:26;;;;;;;11.90;4.80;;;;;;;25.39;43.06;100376.15;108289;1254;60410;-66
2023/10/01 10:24:32;;;;;;;11.70;4.30;;;;;;;25.55;42.39;100374.05;108089;1253;73099;-66
2023/10/01 10:27:07;;;;;;;10.00;3.80;;;;;;;25.70;41.77;100370.10;108119;1253;69296;-65
2023/10/01 10:29:57;;;;;;;11.00;4.50;;;;;;;25.64;41.21;100367.02;108114;1253;72728;-65
2023/10/01 10:32:29;;;;;;;13.00;4.20;;;;;;;25.62;40.90;100365.27;108099;1254;61641;-65
2023/10/01 10:35:06;;;;;;;9.40;3.50;;;;;;;25.62;40.96;100370.08;108108;1257;60214;-67
2023/10/01 10:37:37;;;;;;;10.50;3.60;;;;;;;25.72;40.96;100371.45;108059;1253;72433;-67
2023/10/01 10:40:23;;;;;;;;;;;;;;;25.65;41.06;100379.14;108084;1253;69547;-67
2023/10/01 10:43:02;;;;;;;10.40;3.50;;;;;;;25.69;41.06;100379.73;108075;1254;72698;-67
2023/10/01 10:45:46;;;;;;;9.00;3.50;;;;;;;25.94;40.73;100381.98;108069;1253;60822;-67
2023/10/01 10:48:16;;;;;;;10.90;4.30;;;;;;;25.77;40.71;100378.73;108106;1253;60166;-66
2023/10/01 10:50:50;;;;;;;10.80;3.90;;;;;;;25.61;41.04;100378.45;108123;1254;71772;-67
2023/10/01 10:53:37;;;;;;;10.30;3.40;;;;;;;25.39;41.39;100379.59;108107;1253;70467;-67
2023/10/01 10:56:09;;;;;;;13.30;3.80;;;;;;;25.40;41.49;100379.83;108101;1253;71557;-67
2023/10/01 10:59:36;;;;;;;9.60;4.10;;;;;;;23.82;44.93;100382.16;104934;1294;600047;-67
2023/10/01 11:02:03;;;;;;;9.10;4.10;;;;;;;24.87;42.71;100379.20;107305;1264;61667;-67
2023/10/01 11:04:31;;;;;;;10.70;3.20;;;;;;;24.94;42.28;100375.48;107282;1264;59126;-66
2023/10/01 11:07:01;;;;;;;11.60;3.90;;;;;;;24.93;41.88;100377.17;107354;1264;71499;-67
2023/10/01 11:09:31;;;;;;;9.80;4.10;;;;;;;24.97;41.61;100374.29;107381;1264;70384;-66
2023/10/01 11:12:04;;;;;;;10.20;3.50;;;;;;;25.18;41.11;100371.41;107295;1270;72790;-67
2023/10/01 11:14:36;;;;;;;18.80;3.70;;;;;;;25.29;40.62;100364.97;107240;1263;60961;-66
2023/10/01 11:17:06;;;;;;;7.70;3.10;;;;;;;25.32;40.62;100365.44;107474;1262;60000;-66
2023/10/01 11:19:38;;;;;;;12.10;3.00;;;;;;;25.50;40.23;100367.71;107411;1264;72064;-67
2023/10/01 11:22:08;;;;;;;9.90;3.10;;;;;;;25.36;40.08;100363.30;107355;1264;68835;-67
2023/10/01 11:24:39;;;;;;;10.70;3.20;;;;;;;25.45;39.95;100358.62;107314;1264;72709;-67
2023/10/01 11:27:26;;;;;;;7.10;3.20;;;;;;;25.47;39.80;100361.73;107352;1263;61640;-67
2023/10/01 11:30:00;;;;;;;10.70;4.00;;;;;;;25.65;39.63;100362.77;107361;1268;60113;-67
2023/10/01 11:32:58;;;;;;;8.50;3.40;;;;;;;25.76;39.42;100366.40;107320;1264;73584;-67
2023/10/01 11:35:35;;;;;;;8.00;2.80;;;;;;;26.12;38.45;100362.35;107309;1264;69420;-67
2023/10/01 11:38:10;;;;;;;12.40;2.80;;;;;;;26.34;37.74;100359.90;107559;1260;73084;-66
2023/10/01 11:43:32;;;;;;;10.70;2.80;;;;;;;26.98;35.86;100345.14;108035;1254;59876;-68
2023/10/01 11:46:20;;;;;;;7.90;2.70;;;;;;;27.51;34.17;100348.64;107960;1254;71075;-68
2023/10/01 11:48:57;;;;;;;11.50;3.20;;;;;;;27.99;33.34;100346.52;108151;1254;69012;-67
2023/10/01 11:51:31;;;;;;;7.70;2.40;;;;;;;28.35;32.54;100343.21;108112;1254;71425;-67
2023/10/01 11:54:09;;;;;;;7.30;2.30;;;;;;;28.54;32.56;100340.16;108182;1253;59500;-67
2023/10/01 11:56:43;;;;;;;6.10;2.40;;;;;;;28.55;31.51;100339.40;108153;1252;59384;-68
2023/10/01 11:59:17;;;;;;;11.10;2.50;;;;;;;28.50;31.38;100334.16;108120;1253;73247;-66
2023/10/01 12:01:50;;;;;;;5.80;2.00;;;;;;;28.67;30.94;100331.55;108130;1254;68961;-67
2023/10/01 12:04:24;;;;;;;5.30;2.30;;;;;;;29.13;30.64;100326.07;108088;1253;72791;-67
2023/10/01 12:06:56;;;;;;;6.60;2.50;;;;;;;29.26;30.12;100325.92;108089;1253;59471;-67
2023/10/01 12:09:24;;;;;;;5.50;2.60;;;;;;;29.48;29.79;100326.46;108067;1257;59537;-67